Time;durP1;ratioP1;P1;durP2;ratioP2;P2;SDS_P1;SDS_P2;PMS_P1;PMS_P2;Temp;Humidity;BMP_temperature;BMP_pressure;BME280_temperature;BME280_humidity;BME280_pressure;Samples;Min_cycle;Max_cycle;Signal;HPM_P1;HPM_P2
2022/11/13 00:01:20;;;;;;;36.50;20.20;;;;;;;8.25;83.19;101475.92;210802;1298;141683;-69
2022/11/13 00:06:24;;;;;;;;;;;;;;;8.29;83.26;101476.44;210827;1288;142228;-67
2022/11/13 00:11:27;;;;;;;37.20;19.80;;;;;;;8.28;83.61;101469.27;210288;1291;126082;-67
2022/11/13 00:16:31;;;;;;;31.70;20.70;;;;;;;8.26;83.10;101471.03;209154;1276;141226;-68
2022/11/13 00:21:35;;;;;;;40.20;22.90;;;;;;;8.25;83.85;101469.14;210899;1283;141135;-70
2022/11/13 00:26:38;;;;;;;38.10;20.70;;;;;;;8.30;83.75;101470.65;210031;1294;141398;-70
2022/11/13 00:31:43;;;;;;;39.50;23.10;;;;;;;8.19;82.89;101461.55;207376;1282;142305;-69
2022/11/13 00:36:47;;;;;;;39.80;22.30;;;;;;;8.04;83.33;101462.24;210672;1291;140805;-70
2022/11/13 00:41:50;;;;;;;37.40;22.10;;;;;;;8.06;83.82;101456.95;210639;1292;141949;-66
2022/11/13 00:46:54;;;;;;;38.40;24.10;;;;;;;8.13;83.92;101447.05;210628;1292;140940;-67
2022/11/13 00:51:59;;;;;;;32.80;20.20;;;;;;;8.10;83.82;101444.98;210937;1284;139464;-68
2022/11/13 00:57:04;;;;;;;41.00;21.30;;;;;;;8.08;83.89;101444.52;210876;1292;142058;-67
2022/11/13 01:02:08;;;;;;;44.50;23.90;;;;;;;8.08;83.60;101439.11;210735;1297;142033;-67
2022/11/13 01:07:12;;;;;;;52.30;24.00;;;;;;;8.07;83.72;101433.15;210806;1297;140666;-66
2022/11/13 01:12:16;;;;;;;38.80;23.90;;;;;;;8.10;84.03;101427.98;210662;1292;141349;-68
2022/11/13 01:17:19;;;;;;;47.50;24.00;;;;;;;8.16;84.04;101423.16;210983;1285;141077;-65
2022/11/13 01:22:22;;;;;;;37.90;25.00;;;;;;;8.20;84.22;101413.80;211037;1281;139853;-67
2022/11/13 01:27:26;;;;;;;41.70;24.40;;;;;;;8.20;83.87;101420.39;210640;1292;140058;-66
2022/11/13 01:32:29;;;;;;;47.40;25.20;;;;;;;8.22;84.00;101415.02;210804;1289;140644;-66
2022/11/13 01:37:33;;;;;;;43.80;25.90;;;;;;;8.18;83.65;101423.05;210392;1292;141417;-67
2022/11/13 01:42:37;;;;;;;41.20;24.40;;;;;;;8.20;83.83;101415.06;210928;1290;141135;-68
2022/11/13 01:47:40;;;;;;;47.10;23.20;;;;;;;8.19;83.99;101415.10;210785;1282;141530;-69
2022/11/13 01:52:44;;;;;;;44.10;23.70;;;;;;;8.24;84.24;101412.27;210758;1291;141804;-67
2022/11/13 01:57:49;;;;;;;41.20;24.10;;;;;;;8.23;83.64;101410.75;210444;1289;141415;-70
2022/11/13 02:02:53;;;;;;;35.50;20.10;;;;;;;8.13;83.65;101406.77;210856;1292;140930;-69
2022/11/13 02:07:56;;;;;;;41.20;21.40;;;;;;;8.07;83.75;101405.39;210847;1289;142265;-70
2022/11/13 02:13:01;;;;;;;43.60;22.30;;;;;;;8.08;84.23;101398.48;208138;1276;141382;-69
2022/11/13 02:18:05;;;;;;;33.50;21.40;;;;;;;8.02;83.56;101400.30;208250;1275;142119;-69
2022/11/13 02:23:09;;;;;;;42.60;23.10;;;;;;;7.92;83.97;101394.73;210130;1284;140398;-69
2022/11/13 02:28:13;;;;;;;43.10;21.50;;;;;;;7.99;84.33;101391.40;210923;1297;142304;-69
2022/11/13 02:33:30;;;;;;;38.80;23.40;;;;;;;8.04;84.26;101395.41;210837;1292;141105;-69
2022/11/13 02:38:39;;;;;;;35.70;21.10;;;;;;;8.08;84.44;101394.23;210405;1283;140001;-69
2022/11/13 02:43:43;;;;;;;37.10;22.90;;;;;;;8.12;84.44;101391.18;210169;1292;140524;-68
2022/11/13 02:48:46;;;;;;;41.40;22.30;;;;;;;8.12;84.03;101396.66;210007;1297;140494;-68
2022/11/13 02:53:50;;;;;;;36.60;20.30;;;;;;;8.07;83.98;101393.27;210648;1284;141164;-69
2022/11/13 02:58:54;;;;;;;32.90;20.50;;;;;;;8.13;84.26;101398.85;210911;1291;140414;-69
2022/11/13 03:03:58;;;;;;;39.80;22.10;;;;;;;8.12;83.98;101403.73;210935;1288;246832;-68
2022/11/13 03:09:02;;;;;;;32.20;18.40;;;;;;;8.03;83.87;101402.09;210833;1292;140922;-68
2022/11/13 03:14:06;;;;;;;34.40;18.70;;;;;;;7.97;83.79;101404.44;210742;1291;140226;-67
2022/11/13 03:19:09;;;;;;;33.70;19.40;;;;;;;7.91;83.86;101406.75;210780;1292;141043;-67
2022/11/13 03:24:13;;;;;;;37.60;19.10;;;;;;;7.93;83.86;101407.53;210917;1292;140658;-67
2022/11/13 03:29:16;;;;;;;32.30;17.00;;;;;;;7.94;83.91;101400.02;210923;1290;139828;-67
2022/11/13 03:34:20;;;;;;;33.20;18.30;;;;;;;7.92;84.13;101405.02;211068;1289;139487;-69
2022/11/13 03:39:24;;;;;;;38.30;21.40;;;;;;;7.95;84.17;101401.30;210726;1289;139580;-70
2022/11/13 03:44:27;;;;;;;32.90;18.60;;;;;;;8.00;84.33;101396.92;210883;1278;142810;-70
2022/11/13 03:49:31;;;;;;;38.00;19.10;;;;;;;8.07;84.23;101394.44;210998;1289;141579;-71
2022/11/13 03:54:34;;;;;;;38.70;19.20;;;;;;;8.06;84.18;101394.10;211093;1297;141241;-71
2022/11/13 03:59:38;;;;;;;40.90;18.90;;;;;;;8.05;84.15;101402.08;210888;1292;141204;-71
2022/11/13 04:04:41;;;;;;;33.40;18.70;;;;;;;8.08;84.32;101395.45;209953;1279;141244;-72
2022/11/13 04:09:45;;;;;;;34.90;19.40;;;;;;;8.11;83.88;101388.96;208346;1293;140115;-71
2022/11/13 04:14:49;;;;;;;40.50;20.60;;;;;;;8.04;83.89;101382.38;210559;1282;140973;-71
2022/11/13 04:19:53;;;;;;;33.40;20.20;;;;;;;7.92;83.77;101379.19;210254;1290;139785;-68
2022/11/13 04:24:56;;;;;;;37.40;21.10;;;;;;;7.82;84.02;101381.58;209320;1292;139558;-69
2022/11/13 04:30:00;;;;;;;39.40;22.80;;;;;;;7.76;83.88;101380.61;209672;1283;139945;-69
2022/11/13 04:35:04;;;;;;;35.20;20.60;;;;;;;7.79;84.38;101383.19;210131;1293;140353;-71
2022/11/13 04:40:08;;;;;;;39.70;20.90;;;;;;;7.86;84.35;101384.40;210810;1292;140731;-68
2022/11/13 04:45:12;;;;;;;41.20;20.50;;;;;;;7.84;84.13;101384.02;208733;1290;141772;-71
2022/11/13 04:50:16;;;;;;;43.50;22.80;;;;;;;7.84;84.19;101380.50;210660;1292;140510;-69
2022/11/13 04:55:19;;;;;;;43.00;22.20;;;;;;;7.86;84.39;101378.27;210704;1286;140847;-69
2022/11/13 05:00:23;;;;;;;40.30;19.40;;;;;;;7.93;84.44;101377.70;210916;1290;142469;-69
2022/11/13 05:05:26;;;;;;;40.60;21.90;;;;;;;7.98;84.36;101380.75;210798;1295;140562;-69
2022/11/13 05:10:30;;;;;;;38.30;19.40;;;;;;;7.90;84.11;101373.56;211084;1292;139859;-68
2022/11/13 05:15:33;;;;;;;37.20;20.90;;;;;;;7.92;84.28;101373.22;210641;1297;276167;-68
2022/11/13 05:20:37;;;;;;;43.80;20.90;;;;;;;7.94;84.06;101374.00;210808;1291;142232;-70
2022/11/13 05:25:40;;;;;;;46.10;24.10;;;;;;;7.89;84.01;101372.77;210983;1279;140613;-70
2022/11/13 05:30:44;;;;;;;43.80;21.00;;;;;;;7.92;84.42;101373.55;211119;1292;140493;-70
2022/11/13 05:35:48;;;;;;;40.40;22.50;;;;;;;7.94;84.38;101369.25;210979;1288;139833;-71
2022/11/13 05:40:52;;;;;;;46.60;23.30;;;;;;;7.90;84.08;101371.48;210970;1283;139998;-70
2022/11/13 05:46:03;;;;;;;35.80;20.60;;;;;;;7.88;84.12;101378.82;210846;1289;141084;-70
2022/11/13 05:51:18;;;;;;;39.10;22.20;;;;;;;7.85;84.17;101382.42;210877;1289;142002;-70
2022/11/13 05:56:31;;;;;;;34.70;18.60;;;;;;;7.91;84.23;101383.72;211211;1279;206291;-71
2022/11/13 06:01:37;;;;;;;46.90;25.10;;;;;;;7.78;84.02;101387.44;210938;1288;139892;-71
2022/11/13 06:06:43;;;;;;;42.60;24.50;;;;;;;7.70;84.10;101389.44;211015;1292;142584;-70
2022/11/13 06:11:47;;;;;;;41.10;22.50;;;;;;;7.74;84.46;101391.28;210435;1292;140738;-69
2022/11/13 06:16:51;;;;;;;50.10;25.50;;;;;;;7.79;84.34;101390.39;211059;1289;140605;-69
2022/11/13 06:21:55;;;;;;;42.20;23.60;;;;;;;7.89;84.55;101392.33;210686;1288;140709;-69
2022/11/13 06:26:59;;;;;;;40.70;24.00;;;;;;;7.88;84.46;101391.00;211036;1279;139979;-69
2022/11/13 06:32:03;;;;;;;45.20;23.60;;;;;;;7.88;84.84;101393.95;210704;1296;139901;-69
2022/11/13 06:37:06;;;;;;;40.00;22.00;;;;;;;7.96;84.66;101389.67;210636;1289;140306;-68
2022/11/13 06:42:10;;;;;;;47.20;23.60;;;;;;;8.02;84.46;101387.93;210934;1289;140357;-68
2022/11/13 06:47:14;;;;;;;48.50;24.90;;;;;;;7.95;83.97;101388.19;208689;1283;141051;-68
2022/11/13 06:52:17;;;;;;;40.20;19.20;;;;;;;7.88;84.23;101388.71;210957;1289;140864;-69
2022/11/13 06:57:21;;;;;;;41.90;22.50;;;;;;;7.78;84.18;101389.63;210974;1285;140991;-68
2022/11/13 07:02:25;;;;;;;49.60;24.70;;;;;;;7.79;84.53;101392.73;210952;1297;140383;-70
2022/11/13 07:07:29;;;;;;;54.10;25.10;;;;;;;7.82;84.43;101392.73;210733;1290;140911;-70
2022/11/13 07:12:32;;;;;;;44.10;22.00;;;;;;;7.92;84.86;101387.29;211109;1291;141302;-70
2022/11/13 07:17:36;;;;;;;46.40;22.30;;;;;;;7.95;84.56;101394.20;210937;1289;140909;-69
2022/11/13 07:22:40;;;;;;;59.90;23.20;;;;;;;7.95;84.72;101397.02;210936;1282;141825;-69
2022/11/13 07:27:44;;;;;;;50.80;24.80;;;;;;;7.97;84.63;101399.41;210763;1295;141150;-70
2022/11/13 07:32:49;;;;;;;44.10;19.40;;;;;;;8.04;84.69;101403.25;210585;1289;142436;-69
2022/11/13 07:37:57;;;;;;;44.40;22.40;;;;;;;8.08;84.71;101406.14;210867;1289;140736;-69
2022/11/13 07:43:02;;;;;;;34.80;18.00;;;;;;;8.12;84.63;101407.98;210747;1289;141050;-70
2022/11/13 07:48:05;;;;;;;29.00;16.60;;;;;;;8.18;84.76;101413.88;210808;1292;140885;-69
2022/11/13 07:53:09;;;;;;;29.40;17.10;;;;;;;8.11;84.01;101403.34;210457;1283;142341;-71
2022/11/13 07:58:13;;;;;;;35.00;16.20;;;;;;;8.12;84.68;101401.23;208705;1282;143161;-71
2022/11/13 08:03:17;;;;;;;22.10;13.10;;;;;;;8.14;84.20;101402.42;210916;1292;142323;-72
2022/11/13 08:08:22;;;;;;;28.60;12.10;;;;;;;7.95;84.09;101400.77;210925;1291;139885;-72
2022/11/13 08:13:25;;;;;;;31.90;16.70;;;;;;;7.88;84.31;101402.45;210754;1291;142192;-71
2022/11/13 08:18:30;;;;;;;25.60;14.10;;;;;;;7.84;84.16;101411.64;210745;1292;143356;-69
2022/11/13 08:23:34;;;;;;;21.40;13.20;;;;;;;7.76;84.41;101415.09;210786;1281;141409;-71
2022/11/13 08:28:37;;;;;;;30.30;17.50;;;;;;;7.76;84.47;101407.86;210196;1282;141059;-73
2022/11/13 08:33:42;;;;;;;29.10;15.20;;;;;;;7.83;84.61;101408.42;210838;1290;141284;-72
2022/11/13 08:38:46;;;;;;;29.30;14.30;;;;;;;7.83;84.76;101404.08;210476;1291;140274;-72
2022/11/13 08:43:50;;;;;;;23.80;14.80;;;;;;;7.84;84.58;101404.36;210684;1296;141738;-71
2022/11/13 08:48:54;;;;;;;27.50;15.60;;;;;;;7.91;85.13;101402.66;208038;1286;141782;-70
2022/11/13 08:53:57;;;;;;;31.50;15.60;;;;;;;8.14;85.35;101405.84;210889;1295;142927;-68
2022/11/13 08:59:01;;;;;;;22.40;13.30;;;;;;;8.35;85.27;101403.05;208683;1282;140779;-70
2022/11/13 09:04:05;;;;;;;19.90;13.10;;;;;;;8.36;84.59;101406.77;210766;1291;140691;-69
2022/11/13 09:09:09;;;;;;;18.90;10.70;;;;;;;8.28;84.60;101405.67;210633;1290;140516;-71
2022/11/13 09:14:13;;;;;;;18.60;11.10;;;;;;;8.21;84.18;101403.73;210749;1285;140579;-70
2022/11/13 09:19:17;;;;;;;17.50;11.20;;;;;;;8.17;84.44;101398.18;210805;1292;141424;-69
2022/11/13 09:24:21;;;;;;;24.40;12.80;;;;;;;8.14;84.21;101394.13;210904;1295;141008;-73
2022/11/13 09:29:25;;;;;;;25.30;14.70;;;;;;;8.05;83.92;101392.48;210750;1292;141680;-73
2022/11/13 09:34:29;;;;;;;28.40;15.00;;;;;;;7.90;83.84;101398.73;210862;1289;141085;-75
2022/11/13 09:39:33;;;;;;;25.40;13.90;;;;;;;7.74;83.98;101389.27;210579;1293;143272;-70
2022/11/13 09:44:42;;;;;;;25.40;14.90;;;;;;;7.69;84.32;101382.55;210681;1297;141837;-71
2022/11/13 09:49:55;;;;;;;32.00;14.80;;;;;;;7.59;84.25;101382.99;210772;1282;141799;-70
2022/11/13 09:54:58;;;;;;;28.10;14.10;;;;;;;7.61;84.62;101372.70;210677;1293;142520;-70
2022/11/13 10:00:11;;;;;;;32.00;15.50;;;;;;;7.72;84.44;101370.89;210721;1298;141794;-68
2022/11/13 10:05:21;;;;;;;28.20;14.60;;;;;;;7.78;84.35;101370.28;210836;1292;141944;-68
2022/11/13 10:10:49;;;;;;;22.70;11.30;;;;;;;7.72;84.23;101362.36;210828;1289;141948;-71
2022/11/13 10:16:08;;;;;;;26.50;13.00;;;;;;;7.71;84.07;101365.98;210481;1282;142937;-69
2022/11/13 10:21:37;;;;;;;28.90;14.10;;;;;;;7.66;84.13;101359.97;210838;1292;141203;-69
2022/11/13 10:26:43;;;;;;;27.80;13.80;;;;;;;7.69;84.19;101358.65;210701;1298;141357;-70
2022/11/13 10:31:51;;;;;;;25.90;13.30;;;;;;;7.65;83.99;101358.40;209229;1289;141258;-68
2022/11/13 10:37:14;;;;;;;;;;;;;;;7.51;83.53;101350.30;210813;1296;142758;-69
2022/11/13 10:42:40;;;;;;;19.40;10.90;;;;;;;7.40;83.78;101343.25;210517;1289;126869;-68
2022/11/13 10:47:50;;;;;;;17.60;9.90;;;;;;;7.38;83.97;101333.87;210927;1290;141456;-70
2022/11/13 10:53:16;;;;;;;15.80;8.70;;;;;;;7.28;83.58;101326.89;210875;1292;140745;-71
2022/11/13 10:58:21;;;;;;;21.60;11.10;;;;;;;7.21;83.81;101331.80;210817;1292;140733;-69
2022/11/13 11:03:26;;;;;;;20.60;9.20;;;;;;;7.22;83.90;101330.23;210877;1292;141997;-71
2022/11/13 11:08:35;;;;;;;17.60;9.70;;;;;;;7.27;83.88;101337.11;210874;1290;140041;-69
2022/11/13 11:13:42;;;;;;;16.20;8.30;;;;;;;7.29;83.89;101334.91;210655;1292;140673;-69
2022/11/13 11:19:03;;;;;;;15.30;9.60;;;;;;;7.38;83.98;101329.84;210691;1298;144404;-69
2022/11/13 11:24:15;;;;;;;;;;;;;;;7.46;83.76;101332.61;210672;1288;141975;-70
2022/11/13 11:29:25;;;;;;;22.70;13.00;;;;;;;7.47;83.68;101323.64;211521;1292;126853;-70
2022/11/13 11:34:55;;;;;;;34.30;18.50;;;;;;;7.40;83.15;101325.67;210909;1295;140705;-71
2022/11/13 11:40:17;;;;;;;29.30;15.30;;;;;;;7.37;83.39;101323.04;210700;1288;141117;-70
2022/11/13 11:45:25;;;;;;;27.90;15.10;;;;;;;7.42;83.54;101318.77;210715;1292;140635;-73
2022/11/13 11:50:35;;;;;;;30.20;14.60;;;;;;;7.45;83.09;101315.40;210818;1292;142365;-73
2022/11/13 11:55:46;;;;;;;49.10;21.60;;;;;;;7.43;83.25;101315.81;210756;1292;141009;-72
2022/11/13 12:00:55;;;;;;;45.20;22.80;;;;;;;7.51;83.21;101316.33;209942;1293;140452;-74
2022/11/13 12:06:45;;;;;;;44.10;24.90;;;;;;;7.50;83.18;101309.91;210712;1298;142219;-74
2022/11/13 12:11:56;;;;;;;40.10;21.90;;;;;;;7.45;82.76;101307.60;210694;1292;140280;-71
2022/11/13 12:17:10;;;;;;;44.40;22.10;;;;;;;7.43;82.49;101300.36;210864;1299;229604;-72
2022/11/13 12:22:42;;;;;;;37.20;19.90;;;;;;;7.46;83.03;101292.02;210730;1291;142029;-72
2022/11/13 12:28:16;;;;;;;38.80;20.90;;;;;;;7.46;82.88;101285.38;210273;1298;141529;-73
2022/11/13 12:33:55;;;;;;;26.60;14.00;;;;;;;7.51;82.69;101279.31;210679;1298;140917;-69
2022/11/13 12:39:26;;;;;;;38.10;18.60;;;;;;;7.47;82.61;101275.42;210640;1290;249224;-71
2022/11/13 12:44:40;;;;;;;36.60;22.70;;;;;;;7.46;83.07;101271.48;210663;1297;141653;-74
2022/11/13 12:49:45;;;;;;;48.40;19.70;;;;;;;7.35;82.41;101271.83;209652;1279;141774;-70
2022/11/13 12:54:51;;;;;;;35.80;18.10;;;;;;;7.14;82.46;101270.73;209287;1294;141065;-67
2022/11/13 13:00:09;;;;;;;38.70;19.40;;;;;;;7.06;82.81;101260.69;210448;1298;141811;-67
2022/11/13 13:05:22;;;;;;;34.20;19.30;;;;;;;7.08;82.96;101252.06;210854;1298;141055;-70
2022/11/13 13:10:40;;;;;;;45.20;20.60;;;;;;;7.08;82.97;101252.06;210996;1290;141877;-72
2022/11/13 13:16:03;;;;;;;30.70;15.40;;;;;;;7.08;83.06;101246.39;210776;1294;141028;-70
2022/11/13 13:21:12;;;;;;;35.00;17.50;;;;;;;7.14;83.10;101230.23;208335;1283;141354;-68
2022/11/13 13:26:24;;;;;;;27.00;12.40;;;;;;;7.04;82.87;101221.61;210755;1294;152639;-70
2022/11/13 13:31:36;;;;;;;35.30;18.50;;;;;;;6.94;82.76;101218.33;210710;1289;245821;-68
2022/11/13 13:36:49;;;;;;;40.20;20.70;;;;;;;6.90;83.15;101217.95;210578;1292;141169;-70
2022/11/13 13:42:17;;;;;;;32.70;16.80;;;;;;;6.91;83.08;101216.39;210831;1298;140569;-72
2022/11/13 13:47:38;;;;;;;28.90;16.70;;;;;;;6.93;83.04;101216.84;210728;1299;140716;-74
2022/11/13 13:52:44;;;;;;;26.90;13.40;;;;;;;6.91;82.62;101214.46;210838;1291;141254;-70
2022/11/13 13:57:58;;;;;;;30.70;16.10;;;;;;;6.90;82.78;101212.69;210920;1290;142394;-70
2022/11/13 14:03:20;;;;;;;39.80;21.60;;;;;;;6.88;83.02;101218.19;210899;1297;140445;-72
2022/11/13 14:08:26;;;;;;;25.80;15.30;;;;;;;6.88;82.85;101214.65;210576;1290;140956;-72
2022/11/13 14:13:31;;;;;;;36.60;19.10;;;;;;;6.88;82.86;101213.58;210780;1292;141898;-71
2022/11/13 14:18:37;;;;;;;37.10;21.40;;;;;;;6.83;83.09;101218.05;210727;1292;142657;-71
2022/11/13 14:23:46;;;;;;;34.30;17.60;;;;;;;6.82;82.85;101222.40;210694;1296;141284;-72
2022/11/13 14:29:01;;;;;;;33.50;22.80;;;;;;;6.81;82.79;101220.61;210678;1292;140761;-71
2022/11/13 14:34:15;;;;;;;35.80;19.20;;;;;;;6.79;82.86;101222.95;210279;1292;141836;-71
2022/11/13 14:39:31;;;;;;;33.40;17.90;;;;;;;6.78;82.86;101225.73;210789;1282;140819;-69
2022/11/13 14:44:36;;;;;;;31.20;17.40;;;;;;;6.77;82.87;101219.80;210316;1297;141083;-70
2022/11/13 14:49:40;;;;;;;34.00;20.40;;;;;;;6.74;82.47;101213.80;210767;1300;140774;-70
2022/11/13 14:54:44;;;;;;;32.90;17.20;;;;;;;6.59;82.60;101201.84;210796;1292;141240;-70
2022/11/13 15:00:17;;;;;;;25.70;15.70;;;;;;;6.58;82.81;101196.89;209396;1283;141065;-69
2022/11/13 15:05:21;;;;;;;31.90;17.10;;;;;;;6.62;82.84;101195.21;210793;1292;141469;-70
2022/11/13 15:10:28;;;;;;;40.40;19.20;;;;;;;6.63;82.94;101191.00;210214;1292;140693;-70
2022/11/13 15:15:32;;;;;;;39.60;20.20;;;;;;;6.56;82.84;101190.17;210852;1294;142003;-70
2022/11/13 15:20:37;;;;;;;53.70;27.40;;;;;;;6.57;83.10;101192.75;210768;1292;140991;-70
2022/11/13 15:25:41;;;;;;;35.40;20.80;;;;;;;6.60;83.07;101187.14;210608;1299;141841;-68
2022/11/13 15:30:45;;;;;;;36.90;20.90;;;;;;;6.64;83.00;101181.02;210616;1291;140129;-70
2022/11/13 15:35:49;;;;;;;41.00;20.00;;;;;;;6.71;83.27;101180.94;210654;1290;141436;-71
2022/11/13 15:40:55;;;;;;;38.60;20.00;;;;;;;6.77;83.15;101186.91;210812;1292;140905;-71
2022/11/13 15:46:00;;;;;;;39.30;20.60;;;;;;;6.81;83.04;101186.62;210714;1284;141696;-68
2022/11/13 15:51:12;;;;;;;35.90;17.90;;;;;;;6.84;83.05;101186.97;210703;1290;140993;-68
2022/11/13 15:56:17;;;;;;;36.90;20.10;;;;;;;6.67;82.39;101179.98;209183;1285;141384;-70
2022/11/13 16:01:26;;;;;;;28.10;15.20;;;;;;;6.45;82.31;101176.25;210621;1283;140582;-70
2022/11/13 16:06:34;;;;;;;39.70;21.90;;;;;;;6.40;82.83;101173.30;210675;1282;142687;-67
2022/11/13 16:11:43;;;;;;;42.40;22.20;;;;;;;6.45;83.05;101171.34;210916;1297;140010;-68
2022/11/13 16:16:58;;;;;;;43.10;23.60;;;;;;;6.54;83.32;101177.33;210805;1292;140056;-67
2022/11/13 16:22:07;;;;;;;41.90;21.30;;;;;;;6.61;83.31;101180.65;208203;1291;141824;-68
2022/11/13 16:27:27;;;;;;;;;;;;;;;6.65;83.03;101182.65;210391;1291;141831;-73
2022/11/13 16:32:31;;;;;;;42.30;23.30;;;;;;;6.69;83.21;101189.29;211538;1290;127635;-71
2022/11/13 16:37:35;;;;;;;43.60;20.60;;;;;;;6.73;83.21;101190.40;210862;1284;140375;-69
2022/11/13 16:42:42;;;;;;;44.40;24.60;;;;;;;6.73;83.03;101185.48;210164;1291;140233;-70
2022/11/13 16:47:46;;;;;;;45.40;23.10;;;;;;;6.78;83.08;101187.69;210711;1298;246472;-70
2022/11/13 16:52:51;;;;;;;49.60;28.40;;;;;;;6.85;82.98;101188.86;208403;1283;141150;-70
2022/11/13 16:57:54;;;;;;;48.50;25.00;;;;;;;6.90;82.97;101188.95;209559;1288;140358;-67
2022/11/13 17:02:58;;;;;;;45.50;24.20;;;;;;;6.93;82.89;101185.49;210802;1283;141392;-68
2022/11/13 17:08:07;;;;;;;47.60;23.30;;;;;;;6.90;82.85;101193.89;210777;1289;140741;-69
2022/11/13 17:13:11;;;;;;;48.90;24.70;;;;;;;6.88;82.53;101190.59;209717;1283;1177274;-70
2022/11/13 17:18:16;;;;;;;48.70;24.80;;;;;;;6.89;82.92;101185.92;210624;1283;141794;-68
2022/11/13 17:23:22;;;;;;;43.80;23.10;;;;;;;6.91;82.86;101178.85;210647;1289;140909;-68
2022/11/13 17:28:26;;;;;;;50.10;27.30;;;;;;;6.89;82.82;101176.73;210874;1292;141653;-68
2022/11/13 17:33:30;;;;;;;48.30;26.50;;;;;;;6.90;82.68;101166.16;210742;1292;142940;-67
2022/11/13 17:38:36;;;;;;;49.80;28.90;;;;;;;6.94;82.93;101165.70;210844;1300;141147;-79
2022/11/13 17:43:43;;;;;;;55.00;31.10;;;;;;;6.97;82.64;101161.15;210671;1292;141440;-75
2022/11/13 17:48:47;;;;;;;49.10;27.60;;;;;;;7.00;82.63;101162.48;210739;1292;141873;-68
2022/11/13 17:53:51;;;;;;;55.80;30.10;;;;;;;7.02;82.59;101163.54;210958;1291;140559;-69
2022/11/13 17:58:56;;;;;;;49.50;24.70;;;;;;;6.99;82.68;101161.93;210918;1288;140852;-78
2022/11/13 18:04:01;;;;;;;51.90;25.30;;;;;;;6.98;82.40;101162.37;210643;1296;142495;-71
2022/11/13 18:09:05;;;;;;;50.00;24.50;;;;;;;7.00;82.65;101145.72;210615;1284;141552;-73
2022/11/13 18:14:10;;;;;;;48.50;25.60;;;;;;;7.02;82.59;101142.73;210714;1282;140558;-70
2022/11/13 18:19:18;;;;;;;51.90;25.00;;;;;;;7.02;82.59;101146.60;210118;1292;143055;-69
2022/11/13 18:24:24;;;;;;;36.70;23.50;;;;;;;7.03;82.75;101147.95;210601;1291;141538;-72
2022/11/13 18:29:29;;;;;;;47.10;23.20;;;;;;;7.07;82.42;101144.39;210587;1292;141582;-70
2022/11/13 18:34:34;;;;;;;47.00;22.90;;;;;;;7.10;82.46;101150.27;210726;1292;140875;-70
2022/11/13 18:39:38;;;;;;;56.70;26.20;;;;;;;7.08;82.40;101145.10;210765;1289;140087;-68
2022/11/13 18:44:43;;;;;;;40.20;23.80;;;;;;;7.07;82.48;101144.39;210689;1283;141002;-67
2022/11/13 18:49:47;;;;;;;50.80;25.00;;;;;;;7.09;82.26;101138.11;210806;1285;141624;-70
2022/11/13 18:54:51;;;;;;;53.00;25.20;;;;;;;7.16;82.53;101137.00;209931;1283;141758;-77
2022/11/13 18:59:55;;;;;;;46.60;27.20;;;;;;;7.18;82.37;101135.48;210338;1292;141170;-70
2022/11/13 19:05:00;;;;;;;54.90;26.90;;;;;;;7.17;82.49;101131.03;209243;1285;140220;-70
2022/11/13 19:10:05;;;;;;;55.90;32.30;;;;;;;7.18;82.17;101128.30;210207;1295;139936;-70
2022/11/13 19:15:10;;;;;;;56.70;29.90;;;;;;;7.20;82.37;101129.45;210331;1287;142342;-70
2022/11/13 19:20:16;;;;;;;55.00;30.10;;;;;;;7.18;82.03;101129.90;210391;1291;141010;-73
2022/11/13 19:25:21;;;;;;;50.90;28.30;;;;;;;7.22;82.40;101130.49;210277;1295;141053;-76
2022/11/13 19:30:26;;;;;;;56.60;29.40;;;;;;;7.26;82.59;101129.60;210308;1295;141960;-69
2022/11/13 19:35:32;;;;;;;62.50;30.40;;;;;;;7.29;82.62;101117.81;210495;1282;140344;-71
2022/11/13 19:40:36;;;;;;;62.50;32.10;;;;;;;7.31;82.13;101113.48;210441;1293;141179;-74
2022/11/13 19:45:40;;;;;;;62.00;35.10;;;;;;;7.24;81.77;101107.30;210587;1295;142093;-69
2022/11/13 19:50:46;;;;;;;52.10;30.60;;;;;;;7.14;81.94;101101.95;210531;1286;140532;-69
2022/11/13 19:55:54;;;;;;;78.90;34.00;;;;;;;7.04;81.52;101099.18;210573;1293;140963;-69
2022/11/13 20:01:25;;;;;;;188.60;75.60;;;;;;;7.00;81.94;101098.03;210538;1295;140923;-69
2022/11/13 20:06:32;;;;;;;63.60;28.30;;;;;;;6.97;82.15;101098.15;210562;1292;141389;-69
2022/11/13 20:11:36;;;;;;;50.00;23.80;;;;;;;6.91;82.07;101088.69;210561;1292;140803;-67
2022/11/13 20:16:43;;;;;;;51.60;26.60;;;;;;;6.85;82.31;101093.10;210791;1283;142053;-67
2022/11/13 20:21:47;;;;;;;46.60;23.20;;;;;;;6.81;82.43;101097.04;210563;1285;141768;-69
2022/11/13 20:26:51;;;;;;;37.60;22.70;;;;;;;6.81;82.52;101088.26;210478;1285;141255;-67
2022/11/13 20:31:55;;;;;;;50.90;23.60;;;;;;;6.84;82.66;101084.19;210591;1292;150592;-67
2022/11/13 20:36:58;;;;;;;43.50;22.00;;;;;;;6.93;82.92;101076.45;210553;1284;140894;-69
2022/11/13 20:42:02;;;;;;;49.30;23.20;;;;;;;6.94;82.44;101079.85;208979;1292;141321;-69
2022/11/13 20:47:06;;;;;;;46.40;25.10;;;;;;;6.84;82.46;101076.21;210825;1289;140751;-69
2022/11/13 20:52:11;;;;;;;53.60;26.00;;;;;;;6.84;82.85;101081.47;210753;1292;141220;-69
2022/11/13 20:57:15;;;;;;;47.10;24.40;;;;;;;6.93;82.97;101077.17;209290;1285;141702;-72
2022/11/13 21:02:22;;;;;;;47.50;24.40;;;;;;;6.94;82.62;101076.30;210632;1291;141752;-67
2022/11/13 21:07:26;;;;;;;43.90;24.00;;;;;;;6.92;82.73;101078.77;210723;1282;140360;-67
2022/11/13 21:12:30;;;;;;;58.40;28.50;;;;;;;6.94;82.83;101079.13;210693;1292;140509;-69
2022/11/13 21:17:35;;;;;;;60.00;29.10;;;;;;;6.99;82.89;101073.95;210841;1284;141372;-68
2022/11/13 21:22:39;;;;;;;50.10;25.20;;;;;;;7.09;83.02;101069.56;210342;1291;141016;-70
2022/11/13 21:27:42;;;;;;;48.40;27.60;;;;;;;7.13;83.19;101069.60;210747;1292;141315;-73
2022/11/13 21:32:47;;;;;;;53.20;25.00;;;;;;;7.12;83.09;101074.91;210626;1289;140108;-70
2022/11/13 21:37:51;;;;;;;56.20;26.90;;;;;;;7.16;83.04;101065.44;210589;1298;140856;-74
2022/11/13 21:42:55;;;;;;;49.10;25.40;;;;;;;7.23;82.95;101069.42;210541;1285;141004;-67
2022/11/13 21:47:58;;;;;;;57.30;29.50;;;;;;;7.21;82.60;101073.77;210772;1292;141207;-76
2022/11/13 21:53:02;;;;;;;54.70;26.80;;;;;;;7.22;82.76;101084.39;210934;1291;140502;-66
2022/11/13 21:58:05;;;;;;;61.80;29.40;;;;;;;7.22;82.80;101083.82;210821;1282;140573;-67
2022/11/13 22:03:10;;;;;;;68.70;29.00;;;;;;;7.24;82.95;101079.56;210682;1292;140368;-66
2022/11/13 22:08:14;;;;;;;61.20;26.80;;;;;;;7.21;82.58;101079.71;210718;1290;141325;-69
2022/11/13 22:13:18;;;;;;;57.00;30.50;;;;;;;7.24;82.65;101079.86;210853;1293;142905;-69
2022/11/13 22:18:22;;;;;;;67.40;30.10;;;;;;;7.28;82.86;101083.08;210729;1292;225589;-69
2022/11/13 22:23:25;;;;;;;44.40;21.90;;;;;;;7.24;82.67;101076.51;210567;1292;140462;-69
2022/11/13 22:28:31;;;;;;;48.30;22.80;;;;;;;7.08;82.30;101070.41;210865;1292;141162;-69
2022/11/13 22:33:35;;;;;;;46.20;22.70;;;;;;;6.93;82.47;101066.83;208000;1281;140454;-70
2022/11/13 22:38:39;;;;;;;45.50;23.30;;;;;;;6.84;82.60;101070.75;210880;1290;141951;-71
2022/11/13 22:43:45;;;;;;;42.70;22.70;;;;;;;6.78;82.64;101067.38;210811;1285;144570;-69
2022/11/13 22:48:50;;;;;;;40.00;18.50;;;;;;;6.68;82.67;101072.77;210706;1285;142101;-71
2022/11/13 22:53:59;;;;;;;46.50;23.60;;;;;;;6.59;82.87;101069.12;208013;1292;141974;-69
2022/11/13 22:59:05;;;;;;;40.80;24.70;;;;;;;6.48;83.08;101070.63;210630;1282;142625;-72